Accueil
METAR-TAF:

METAR-TAF

Aéroports :

Wattisham, Angleterre

latitude: 52-07N, longitude: 000-58E, altitude: 87 m

Observation

Le bulletin a été fait il y a 36 minutes, à 16:50 UTC
Vent 3 kt de sud
Température 14°C
Humidité 63%
Pression 1019 hPa
Visibilité 10 km ou plus
Quelques nuages à une hauteur de 4000 ft
Nuages épars à une hauteur de 6000 ft
Nuages fragmentés à une hauteur de 9000 ft

METAR: EGUW 121650Z 18003KT 9999 FEW040 SCT060 BKN090 14/07 Q1019 NOSIG RMK BLU BLU

Heure: 18:26 (17:26 UTC)

Prévision

Le bulletin a été fait il y a 1 heure et 2 minutes, à 16:24 UTC
Prévision valable du 12 à 16 UTC au 12 à 24 UTC
Vent 7 kt de sud-ouest
Visibilité 10 km ou plus
Nuages épars à une hauteur de 3000 ft

TAF: EGUW 121624Z 1216/1224 23007KT 9999 SCT030

Observations et prévisions météorologiques de plus de 4000 aéroports (messages METAR et TAF).

Les stations disponibles sont représentées par des disques jaunes et rouges sur la carte.

Passer la souris dessus pour voir le nom de la station.

Cliquer dessus pour voir les observations et prévisions météorologiques.

Pour changer de carte: cliquez sur les boutons verts avec une croix noire pour zoomer, sur le bouton vert avec un tiret pour effectuer un zoom arrière, ou sur les flèches vertes pour les cartes adjacentes.


METAR-TAF: